Time,TemperatureF,DewpointF,PressureIn,WindDirection,WindDirectionDegrees,WindSpeedMPH,WindSpeedGustMPH,Humidity,HourlyPrecipIn,Conditions,Clouds,dailyrainin,SoftwareType,DateUTC
2015-05-23 00:00:00,57.1,48.1,30.11,SSW,203,0.7,0.7,72,0.00,,,0.00,WUHU216HW,2015-05-23 07:00:00,
2015-05-23 00:05:00,57.1,48.1,30.11,SSW,203,0.7,0.7,72,0.00,,,0.00,WUHU216HW,2015-05-23 07:05:00,
2015-05-23 00:30:00,56.9,47.9,30.11,South,180,0.0,0.0,72,0.00,,,0.00,WUHU216HW,2015-05-23 07:30:00,
2015-05-23 00:35:00,56.9,47.9,30.11,South,180,0.2,0.2,72,0.00,,,0.00,WUHU216HW,2015-05-23 07:35:00,
2015-05-23 00:40:00,56.9,47.9,30.11,South,180,0.2,0.2,72,0.00,,,0.00,WUHU216HW,2015-05-23 07:40:00,
2015-05-23 01:00:00,56.7,48.1,30.11,NW,315,0.0,0.0,73,0.00,,,0.00,WUHU216HW,2015-05-23 08:00:00,
2015-05-23 01:05:00,56.7,48.1,30.11,NW,315,0.0,0.0,73,0.00,,,0.00,WUHU216HW,2015-05-23 08:05:00,
2015-05-23 01:30:00,56.9,48.2,30.11,North,0,0.0,0.0,73,0.00,,,0.00,WUHU216HW,2015-05-23 08:30:00,
2015-05-23 01:35:00,56.9,48.2,30.11,North,0,0.0,0.0,73,0.00,,,0.00,WUHU216HW,2015-05-23 08:35:00,
2015-05-23 02:00:00,57.1,48.4,30.11,North,0,0.0,0.0,73,0.00,,,0.00,WUHU216HW,2015-05-23 09:00:00,
2015-05-23 02:05:00,57.1,48.4,30.11,North,0,0.0,0.0,73,0.00,,,0.00,WUHU216HW,2015-05-23 09:05:00,
2015-05-23 02:30:00,56.7,48.1,30.11,NNE,23,0.0,0.0,73,0.00,,,0.00,WUHU216HW,2015-05-23 09:30:00,
2015-05-23 02:35:00,56.9,48.2,30.11,NNE,23,0.0,0.0,73,0.00,,,0.00,WUHU216HW,2015-05-23 09:35:00,
2015-05-23 02:40:00,56.9,48.2,30.11,NNE,23,0.0,0.0,73,0.00,,,0.00,WUHU216HW,2015-05-23 09:40:00,
2015-05-23 03:00:00,56.3,48.5,30.11,North,0,0.0,0.0,75,0.00,,,0.00,WUHU216HW,2015-05-23 10:00:00,
2015-05-23 03:05:00,56.3,48.5,30.11,North,0,0.0,0.0,75,0.00,,,0.00,WUHU216HW,2015-05-23 10:05:00,
2015-05-23 03:30:00,56.5,48.6,30.11,NNW,338,0.0,0.0,75,0.00,,,0.00,WUHU216HW,2015-05-23 10:30:00,
2015-05-23 03:35:00,56.5,48.6,30.11,NNW,338,0.0,0.0,75,0.00,,,0.00,WUHU216HW,2015-05-23 10:35:00,
2015-05-23 04:00:00,56.9,48.6,30.11,NNW,338,0.0,0.0,74,0.00,,,0.00,WUHU216HW,2015-05-23 11:00:00,
2015-05-23 04:05:00,56.9,48.6,30.11,NNW,338,0.0,0.0,74,0.00,,,0.00,WUHU216HW,2015-05-23 11:05:00,
2015-05-23 04:10:00,56.9,48.6,30.11,NNW,338,0.0,0.0,74,0.00,,,0.00,WUHU216HW,2015-05-23 11:10:00,
2015-05-23 04:30:00,56.5,48.6,30.10,North,0,1.1,1.1,75,0.00,,,0.00,WUHU216HW,2015-05-23 11:30:00,
2015-05-23 04:35:00,56.5,48.6,30.10,North,0,1.1,1.1,75,0.00,,,0.00,WUHU216HW,2015-05-23 11:35:00,
2015-05-23 05:00:00,56.9,49.3,30.10,North,0,0.4,0.4,76,0.00,,,0.00,WUHU216HW,2015-05-23 12:00:00,
2015-05-23 05:05:00,56.9,49.3,30.10,North,0,0.4,0.4,76,0.00,,,0.00,WUHU216HW,2015-05-23 12:05:00,
2015-05-23 05:30:00,56.5,49.7,30.11,NNE,23,0.0,0.0,78,0.00,,,0.00,WUHU216HW,2015-05-23 12:30:00,
2015-05-23 05:35:00,56.5,49.7,30.11,NNE,23,0.0,0.0,78,0.00,,,0.00,WUHU216HW,2015-05-23 12:35:00,
2015-05-23 06:00:00,55.6,49.1,30.11,NNE,23,0.0,0.0,79,0.00,,,0.00,WUHU216HW,2015-05-23 13:00:00,
2015-05-23 06:05:00,55.6,49.1,30.11,NNE,23,0.0,0.0,79,0.00,,,0.00,WUHU216HW,2015-05-23 13:05:00,
2015-05-23 06:10:00,55.6,49.1,30.11,NNE,23,0.0,0.0,79,0.00,,,0.00,WUHU216HW,2015-05-23 13:10:00,
2015-05-23 06:30:00,55.4,49.3,30.11,North,0,0.4,0.4,80,0.00,,,0.00,WUHU216HW,2015-05-23 13:30:00,
2015-05-23 06:35:00,55.4,49.3,30.11,North,0,0.4,0.4,80,0.00,,,0.00,WUHU216HW,2015-05-23 13:35:00,
2015-05-23 07:00:00,55.3,49.1,30.12,North,0,0.0,0.0,80,0.00,,,0.00,WUHU216HW,2015-05-23 14:00:00,
2015-05-23 07:05:00,55.3,49.1,30.12,North,0,0.0,0.0,80,0.00,,,0.00,WUHU216HW,2015-05-23 14:05:00,
2015-05-23 07:30:00,55.8,50.1,30.13,NNE,23,0.0,0.0,81,0.00,,,0.00,WUHU216HW,2015-05-23 14:30:00,
2015-05-23 07:35:00,55.8,50.1,30.13,NNE,23,0.0,0.0,81,0.00,,,0.00,WUHU216HW,2015-05-23 14:35:00,
2015-05-23 08:00:00,56.2,50.4,30.14,South,180,0.2,0.2,81,0.00,,,0.00,WUHU216HW,2015-05-23 15:00:00,
2015-05-23 08:05:00,56.2,50.4,30.14,South,180,0.2,0.2,81,0.00,,,0.00,WUHU216HW,2015-05-23 15:05:00,
2015-05-23 08:10:00,56.2,50.4,30.14,South,180,0.2,0.2,81,0.00,,,0.00,WUHU216HW,2015-05-23 15:10:00,
2015-05-23 08:30:00,57.2,50.8,30.14,SSW,203,1.8,1.8,79,0.00,,,0.00,WUHU216HW,2015-05-23 15:30:00,
2015-05-23 08:35:00,57.2,50.8,30.14,SSW,203,1.8,1.8,79,0.00,,,0.00,WUHU216HW,2015-05-23 15:35:00,
2015-05-23 09:00:00,58.3,51.1,30.14,SSE,158,0.9,0.9,77,0.00,,,0.00,WUHU216HW,2015-05-23 16:00:00,
2015-05-23 09:05:00,58.3,51.1,30.14,SSE,158,0.9,0.9,77,0.00,,,0.00,WUHU216HW,2015-05-23 16:05:00,
2015-05-23 09:30:00,60.1,51.5,30.15,South,180,2.5,2.5,73,0.00,,,0.00,WUHU216HW,2015-05-23 16:30:00,
2015-05-23 09:35:00,60.1,51.5,30.15,South,180,2.5,2.5,73,0.00,,,0.00,WUHU216HW,2015-05-23 16:35:00,